sensor_id;sensor_type;location;lat;lon;timestamp;temperature;humidity
18446;DHT22;9352;50.888;4.466;2023-06-14T00:00:07;21.70;71.20
18446;DHT22;9352;50.888;4.466;2023-06-14T00:02:34;21.70;71.20
18446;DHT22;9352;50.888;4.466;2023-06-14T00:05:01;21.60;70.60
18446;DHT22;9352;50.888;4.466;2023-06-14T00:07:37;21.60;70.20
18446;DHT22;9352;50.888;4.466;2023-06-14T00:10:08;21.60;71.20
18446;DHT22;9352;50.888;4.466;2023-06-14T00:12:36;21.50;71.70
18446;DHT22;9352;50.888;4.466;2023-06-14T00:15:04;21.50;71.40
18446;DHT22;9352;50.888;4.466;2023-06-14T00:17:31;21.40;70.80
18446;DHT22;9352;50.888;4.466;2023-06-14T00:19:59;21.40;70.40
18446;DHT22;9352;50.888;4.466;2023-06-14T00:22:30;21.40;70.60
18446;DHT22;9352;50.888;4.466;2023-06-14T00:24:59;21.40;70.30
18446;DHT22;9352;50.888;4.466;2023-06-14T00:27:26;21.40;70.80
18446;DHT22;9352;50.888;4.466;2023-06-14T00:29:53;21.40;70.60
18446;DHT22;9352;50.888;4.466;2023-06-14T00:32:20;21.40;71.20
18446;DHT22;9352;50.888;4.466;2023-06-14T00:34:51;21.40;71.80
18446;DHT22;9352;50.888;4.466;2023-06-14T00:37:18;21.40;71.20
18446;DHT22;9352;50.888;4.466;2023-06-14T00:39:44;21.40;71.40
18446;DHT22;9352;50.888;4.466;2023-06-14T00:42:23;21.30;71.70
18446;DHT22;9352;50.888;4.466;2023-06-14T00:44:50;21.30;72.20
18446;DHT22;9352;50.888;4.466;2023-06-14T00:47:17;21.30;72.40
18446;DHT22;9352;50.888;4.466;2023-06-14T00:49:45;21.20;72.30
18446;DHT22;9352;50.888;4.466;2023-06-14T00:52:13;21.20;72.70
18446;DHT22;9352;50.888;4.466;2023-06-14T00:54:40;21.10;72.80
18446;DHT22;9352;50.888;4.466;2023-06-14T00:57:07;21.10;73.00
18446;DHT22;9352;50.888;4.466;2023-06-14T00:59:40;21.10;73.30
18446;DHT22;9352;50.888;4.466;2023-06-14T01:02:08;21.00;73.40
18446;DHT22;9352;50.888;4.466;2023-06-14T01:04:35;21.00;73.60
18446;DHT22;9352;50.888;4.466;2023-06-14T01:07:09;20.90;73.80
18446;DHT22;9352;50.888;4.466;2023-06-14T01:09:48;20.90;73.90
18446;DHT22;9352;50.888;4.466;2023-06-14T01:12:21;20.90;74.10
18446;DHT22;9352;50.888;4.466;2023-06-14T01:14:51;20.80;74.50
18446;DHT22;9352;50.888;4.466;2023-06-14T01:17:21;20.70;74.50
18446;DHT22;9352;50.888;4.466;2023-06-14T01:19:51;20.70;75.50
18446;DHT22;9352;50.888;4.466;2023-06-14T01:22:24;20.60;75.80
18446;DHT22;9352;50.888;4.466;2023-06-14T01:24:52;20.50;76.10
18446;DHT22;9352;50.888;4.466;2023-06-14T01:27:22;20.40;76.90
18446;DHT22;9352;50.888;4.466;2023-06-14T01:29:50;20.40;76.80
18446;DHT22;9352;50.888;4.466;2023-06-14T01:32:22;20.40;77.70
18446;DHT22;9352;50.888;4.466;2023-06-14T01:34:50;20.30;77.90
18446;DHT22;9352;50.888;4.466;2023-06-14T01:37:18;20.20;78.00
18446;DHT22;9352;50.888;4.466;2023-06-14T01:39:47;20.10;78.50
18446;DHT22;9352;50.888;4.466;2023-06-14T01:42:17;20.10;78.10
18446;DHT22;9352;50.888;4.466;2023-06-14T01:44:46;20.10;78.40
18446;DHT22;9352;50.888;4.466;2023-06-14T01:47:14;20.10;78.90
18446;DHT22;9352;50.888;4.466;2023-06-14T01:49:41;20.10;79.50
18446;DHT22;9352;50.888;4.466;2023-06-14T01:52:08;20.00;79.50
18446;DHT22;9352;50.888;4.466;2023-06-14T01:54:35;19.90;79.70
18446;DHT22;9352;50.888;4.466;2023-06-14T01:57:07;19.80;80.40
18446;DHT22;9352;50.888;4.466;2023-06-14T01:59:37;19.80;80.60
18446;DHT22;9352;50.888;4.466;2023-06-14T02:02:04;19.70;80.50
18446;DHT22;9352;50.888;4.466;2023-06-14T02:04:31;19.70;81.30
18446;DHT22;9352;50.888;4.466;2023-06-14T02:06:58;19.70;81.40
18446;DHT22;9352;50.888;4.466;2023-06-14T02:09:25;19.70;81.30
18446;DHT22;9352;50.888;4.466;2023-06-14T02:11:52;19.60;81.80
18446;DHT22;9352;50.888;4.466;2023-06-14T02:14:19;19.60;82.00
18446;DHT22;9352;50.888;4.466;2023-06-14T02:16:47;19.50;82.30
18446;DHT22;9352;50.888;4.466;2023-06-14T02:19:15;19.50;82.50
18446;DHT22;9352;50.888;4.466;2023-06-14T02:21:42;19.50;83.00
18446;DHT22;9352;50.888;4.466;2023-06-14T02:24:09;19.40;83.00
18446;DHT22;9352;50.888;4.466;2023-06-14T02:26:36;19.40;83.70
18446;DHT22;9352;50.888;4.466;2023-06-14T02:29:04;19.40;84.00
18446;DHT22;9352;50.888;4.466;2023-06-14T02:31:31;19.30;84.10
18446;DHT22;9352;50.888;4.466;2023-06-14T02:33:59;19.30;84.70
18446;DHT22;9352;50.888;4.466;2023-06-14T02:36:26;19.30;84.70
18446;DHT22;9352;50.888;4.466;2023-06-14T02:38:55;19.30;84.60
18446;DHT22;9352;50.888;4.466;2023-06-14T02:41:23;19.20;84.70
18446;DHT22;9352;50.888;4.466;2023-06-14T02:43:50;19.20;85.00
18446;DHT22;9352;50.888;4.466;2023-06-14T02:46:16;19.20;85.20
18446;DHT22;9352;50.888;4.466;2023-06-14T02:48:43;19.10;85.40
18446;DHT22;9352;50.888;4.466;2023-06-14T02:51:12;19.10;85.70
18446;DHT22;9352;50.888;4.466;2023-06-14T02:53:38;19.00;85.70
18446;DHT22;9352;50.888;4.466;2023-06-14T02:56:06;18.90;86.30
18446;DHT22;9352;50.888;4.466;2023-06-14T02:58:33;18.90;86.60
18446;DHT22;9352;50.888;4.466;2023-06-14T03:00:59;18.90;86.60
18446;DHT22;9352;50.888;4.466;2023-06-14T03:03:29;18.90;86.90
18446;DHT22;9352;50.888;4.466;2023-06-14T03:05:56;18.90;88.00
18446;DHT22;9352;50.888;4.466;2023-06-14T03:08:24;18.90;87.30
18446;DHT22;9352;50.888;4.466;2023-06-14T03:10:53;18.80;87.00
18446;DHT22;9352;50.888;4.466;2023-06-14T03:13:21;18.80;87.60
18446;DHT22;9352;50.888;4.466;2023-06-14T03:15:49;18.80;87.70
18446;DHT22;9352;50.888;4.466;2023-06-14T03:18:17;18.80;87.80
18446;DHT22;9352;50.888;4.466;2023-06-14T03:20:44;18.80;87.30
18446;DHT22;9352;50.888;4.466;2023-06-14T03:23:12;18.80;87.70
18446;DHT22;9352;50.888;4.466;2023-06-14T03:25:40;18.70;87.50
18446;DHT22;9352;50.888;4.466;2023-06-14T03:28:07;18.70;87.50
18446;DHT22;9352;50.888;4.466;2023-06-14T03:30:34;18.80;87.40
18446;DHT22;9352;50.888;4.466;2023-06-14T03:33:01;18.80;87.50
18446;DHT22;9352;50.888;4.466;2023-06-14T03:35:28;18.80;87.40
18446;DHT22;9352;50.888;4.466;2023-06-14T03:37:55;18.80;87.60
18446;DHT22;9352;50.888;4.466;2023-06-14T03:40:22;18.80;87.40
18446;DHT22;9352;50.888;4.466;2023-06-14T03:42:53;18.80;87.60
18446;DHT22;9352;50.888;4.466;2023-06-14T03:45:21;18.80;87.80
18446;DHT22;9352;50.888;4.466;2023-06-14T03:47:48;18.80;87.70
18446;DHT22;9352;50.888;4.466;2023-06-14T03:50:16;18.80;87.50
18446;DHT22;9352;50.888;4.466;2023-06-14T03:52:43;18.80;87.60
18446;DHT22;9352;50.888;4.466;2023-06-14T03:55:10;18.80;87.90
18446;DHT22;9352;50.888;4.466;2023-06-14T03:57:38;18.80;88.10
18446;DHT22;9352;50.888;4.466;2023-06-14T04:00:08;18.80;88.00
18446;DHT22;9352;50.888;4.466;2023-06-14T04:02:37;18.80;88.30
18446;DHT22;9352;50.888;4.466;2023-06-14T04:05:04;18.80;88.60
18446;DHT22;9352;50.888;4.466;2023-06-14T04:07:34;18.70;88.40
18446;DHT22;9352;50.888;4.466;2023-06-14T04:10:06;18.80;88.80
18446;DHT22;9352;50.888;4.466;2023-06-14T04:12:34;18.80;88.70
18446;DHT22;9352;50.888;4.466;2023-06-14T04:15:01;18.80;88.90
18446;DHT22;9352;50.888;4.466;2023-06-14T04:17:29;18.80;88.50
18446;DHT22;9352;50.888;4.466;2023-06-14T04:19:58;18.80;88.30
18446;DHT22;9352;50.888;4.466;2023-06-14T04:22:25;18.90;88.60
18446;DHT22;9352;50.888;4.466;2023-06-14T04:24:54;18.90;88.60
18446;DHT22;9352;50.888;4.466;2023-06-14T04:27:21;18.90;88.60
18446;DHT22;9352;50.888;4.466;2023-06-14T04:29:51;18.90;88.70
18446;DHT22;9352;50.888;4.466;2023-06-14T04:32:23;18.90;88.90
18446;DHT22;9352;50.888;4.466;2023-06-14T04:34:53;18.90;88.90
18446;DHT22;9352;50.888;4.466;2023-06-14T04:37:20;18.90;89.10
18446;DHT22;9352;50.888;4.466;2023-06-14T04:39:47;18.90;89.20
18446;DHT22;9352;50.888;4.466;2023-06-14T04:42:14;18.90;89.40
18446;DHT22;9352;50.888;4.466;2023-06-14T04:44:42;18.80;89.40
18446;DHT22;9352;50.888;4.466;2023-06-14T04:47:09;18.90;89.10
18446;DHT22;9352;50.888;4.466;2023-06-14T04:49:36;18.90;88.90
18446;DHT22;9352;50.888;4.466;2023-06-14T04:52:06;18.90;88.90
18446;DHT22;9352;50.888;4.466;2023-06-14T04:54:35;18.90;89.00
18446;DHT22;9352;50.888;4.466;2023-06-14T04:57:04;18.90;89.20
18446;DHT22;9352;50.888;4.466;2023-06-14T04:59:31;18.90;89.40
18446;DHT22;9352;50.888;4.466;2023-06-14T05:01:59;18.90;89.70
18446;DHT22;9352;50.888;4.466;2023-06-14T05:04:26;18.90;89.60
18446;DHT22;9352;50.888;4.466;2023-06-14T05:06:53;19.00;90.00
18446;DHT22;9352;50.888;4.466;2023-06-14T05:09:22;19.00;90.00
18446;DHT22;9352;50.888;4.466;2023-06-14T05:11:49;19.00;90.00
18446;DHT22;9352;50.888;4.466;2023-06-14T05:14:16;19.00;89.80
18446;DHT22;9352;50.888;4.466;2023-06-14T05:16:44;19.00;90.10
18446;DHT22;9352;50.888;4.466;2023-06-14T05:19:10;19.00;90.10
18446;DHT22;9352;50.888;4.466;2023-06-14T05:21:37;19.10;90.30
18446;DHT22;9352;50.888;4.466;2023-06-14T05:24:05;19.10;90.20
18446;DHT22;9352;50.888;4.466;2023-06-14T05:26:33;19.20;90.20
18446;DHT22;9352;50.888;4.466;2023-06-14T05:29:01;19.20;90.00
18446;DHT22;9352;50.888;4.466;2023-06-14T05:31:28;19.30;89.90
18446;DHT22;9352;50.888;4.466;2023-06-14T05:33:55;19.30;90.00
18446;DHT22;9352;50.888;4.466;2023-06-14T05:36:22;19.40;89.10
18446;DHT22;9352;50.888;4.466;2023-06-14T05:38:49;19.40;89.60
18446;DHT22;9352;50.888;4.466;2023-06-14T05:41:23;19.50;89.50
18446;DHT22;9352;50.888;4.466;2023-06-14T05:43:51;19.60;88.40
18446;DHT22;9352;50.888;4.466;2023-06-14T05:46:18;19.60;88.50
18446;DHT22;9352;50.888;4.466;2023-06-14T05:48:47;19.60;88.70
18446;DHT22;9352;50.888;4.466;2023-06-14T05:51:14;19.70;88.80
18446;DHT22;9352;50.888;4.466;2023-06-14T05:53:44;19.70;88.00
18446;DHT22;9352;50.888;4.466;2023-06-14T05:56:11;19.80;87.60
18446;DHT22;9352;50.888;4.466;2023-06-14T05:58:38;19.80;87.40
18446;DHT22;9352;50.888;4.466;2023-06-14T06:01:06;19.90;87.70
18446;DHT22;9352;50.888;4.466;2023-06-14T06:03:33;20.00;87.50
18446;DHT22;9352;50.888;4.466;2023-06-14T06:06:00;20.10;87.20
18446;DHT22;9352;50.888;4.466;2023-06-14T06:08:28;20.20;87.30
18446;DHT22;9352;50.888;4.466;2023-06-14T06:10:55;20.30;86.90
18446;DHT22;9352;50.888;4.466;2023-06-14T06:13:22;20.30;86.80
18446;DHT22;9352;50.888;4.466;2023-06-14T06:15:49;20.40;86.70
18446;DHT22;9352;50.888;4.466;2023-06-14T06:18:17;20.40;86.80
18446;DHT22;9352;50.888;4.466;2023-06-14T06:20:44;20.50;87.20
18446;DHT22;9352;50.888;4.466;2023-06-14T06:23:12;20.60;87.00
18446;DHT22;9352;50.888;4.466;2023-06-14T06:25:39;20.70;87.10
18446;DHT22;9352;50.888;4.466;2023-06-14T06:28:06;20.80;86.70
18446;DHT22;9352;50.888;4.466;2023-06-14T06:30:33;20.80;86.20
18446;DHT22;9352;50.888;4.466;2023-06-14T06:33:01;20.90;86.10
18446;DHT22;9352;50.888;4.466;2023-06-14T06:35:30;20.90;86.70
18446;DHT22;9352;50.888;4.466;2023-06-14T06:37:59;21.10;86.70
18446;DHT22;9352;50.888;4.466;2023-06-14T06:40:26;21.10;86.30
18446;DHT22;9352;50.888;4.466;2023-06-14T06:42:53;21.20;86.50
18446;DHT22;9352;50.888;4.466;2023-06-14T06:45:20;21.30;86.70
18446;DHT22;9352;50.888;4.466;2023-06-14T06:47:48;21.40;86.20
18446;DHT22;9352;50.888;4.466;2023-06-14T06:50:16;21.50;85.30
18446;DHT22;9352;50.888;4.466;2023-06-14T06:52:44;21.60;85.50
18446;DHT22;9352;50.888;4.466;2023-06-14T06:55:11;21.70;85.30
18446;DHT22;9352;50.888;4.466;2023-06-14T06:57:38;21.80;84.50
18446;DHT22;9352;50.888;4.466;2023-06-14T07:00:07;21.90;84.80
18446;DHT22;9352;50.888;4.466;2023-06-14T07:02:35;21.90;84.00
18446;DHT22;9352;50.888;4.466;2023-06-14T07:05:02;22.00;83.90
18446;DHT22;9352;50.888;4.466;2023-06-14T07:07:29;22.10;83.20
18446;DHT22;9352;50.888;4.466;2023-06-14T07:09:58;22.20;83.40
18446;DHT22;9352;50.888;4.466;2023-06-14T07:12:25;22.30;82.60
18446;DHT22;9352;50.888;4.466;2023-06-14T07:14:52;22.40;82.70
18446;DHT22;9352;50.888;4.466;2023-06-14T07:17:19;22.50;82.20
18446;DHT22;9352;50.888;4.466;2023-06-14T07:19:46;22.50;82.30
18446;DHT22;9352;50.888;4.466;2023-06-14T07:22:13;22.50;82.20
18446;DHT22;9352;50.888;4.466;2023-06-14T07:24:40;22.60;82.30
18446;DHT22;9352;50.888;4.466;2023-06-14T07:27:09;22.70;83.50
18446;DHT22;9352;50.888;4.466;2023-06-14T07:29:36;22.80;82.70
18446;DHT22;9352;50.888;4.466;2023-06-14T07:32:04;22.90;82.20
18446;DHT22;9352;50.888;4.466;2023-06-14T07:34:31;22.90;81.80
18446;DHT22;9352;50.888;4.466;2023-06-14T07:36:58;23.10;80.90
18446;DHT22;9352;50.888;4.466;2023-06-14T07:39:25;23.10;81.20
18446;DHT22;9352;50.888;4.466;2023-06-14T07:41:51;23.10;81.90
18446;DHT22;9352;50.888;4.466;2023-06-14T07:44:20;23.20;80.90
18446;DHT22;9352;50.888;4.466;2023-06-14T07:46:47;23.30;80.10
18446;DHT22;9352;50.888;4.466;2023-06-14T07:49:14;23.40;79.60
18446;DHT22;9352;50.888;4.466;2023-06-14T07:51:41;23.50;79.10
18446;DHT22;9352;50.888;4.466;2023-06-14T07:54:09;23.60;78.80
18446;DHT22;9352;50.888;4.466;2023-06-14T07:56:36;23.70;78.40
18446;DHT22;9352;50.888;4.466;2023-06-14T07:59:03;23.80;78.50
18446;DHT22;9352;50.888;4.466;2023-06-14T08:01:32;23.90;78.20
18446;DHT22;9352;50.888;4.466;2023-06-14T08:03:59;24.00;77.50
18446;DHT22;9352;50.888;4.466;2023-06-14T08:06:26;24.10;76.90
18446;DHT22;9352;50.888;4.466;2023-06-14T08:08:53;24.20;76.20
18446;DHT22;9352;50.888;4.466;2023-06-14T08:11:20;24.40;75.90
18446;DHT22;9352;50.888;4.466;2023-06-14T08:13:49;24.40;75.80
18446;DHT22;9352;50.888;4.466;2023-06-14T08:16:16;24.60;76.10
18446;DHT22;9352;50.888;4.466;2023-06-14T08:18:44;24.60;75.40
18446;DHT22;9352;50.888;4.466;2023-06-14T08:21:11;24.70;76.20
18446;DHT22;9352;50.888;4.466;2023-06-14T08:23:40;24.80;74.70
18446;DHT22;9352;50.888;4.466;2023-06-14T08:26:08;24.90;73.90
18446;DHT22;9352;50.888;4.466;2023-06-14T08:28:35;25.00;73.00
18446;DHT22;9352;50.888;4.466;2023-06-14T08:31:02;25.10;74.10
18446;DHT22;9352;50.888;4.466;2023-06-14T08:33:29;25.10;73.90
18446;DHT22;9352;50.888;4.466;2023-06-14T08:35:59;25.20;72.20
18446;DHT22;9352;50.888;4.466;2023-06-14T08:38:26;25.30;72.70
18446;DHT22;9352;50.888;4.466;2023-06-14T08:40:57;25.30;73.40
18446;DHT22;9352;50.888;4.466;2023-06-14T08:43:24;25.50;73.70
18446;DHT22;9352;50.888;4.466;2023-06-14T08:45:56;25.50;74.10
18446;DHT22;9352;50.888;4.466;2023-06-14T08:48:26;25.60;74.60
18446;DHT22;9352;50.888;4.466;2023-06-14T08:50:54;25.70;75.20
18446;DHT22;9352;50.888;4.466;2023-06-14T08:53:28;25.80;74.80
18446;DHT22;9352;50.888;4.466;2023-06-14T08:55:57;25.90;75.40
18446;DHT22;9352;50.888;4.466;2023-06-14T08:58:27;26.00;73.60
18446;DHT22;9352;50.888;4.466;2023-06-14T09:00:55;26.10;72.90
18446;DHT22;9352;50.888;4.466;2023-06-14T09:03:23;26.30;72.00
18446;DHT22;9352;50.888;4.466;2023-06-14T09:05:56;26.30;72.20
18446;DHT22;9352;50.888;4.466;2023-06-14T09:08:24;26.30;71.70
18446;DHT22;9352;50.888;4.466;2023-06-14T09:10:53;26.40;72.00
18446;DHT22;9352;50.888;4.466;2023-06-14T09:13:20;26.50;70.20
18446;DHT22;9352;50.888;4.466;2023-06-14T09:15:47;26.60;71.00
18446;DHT22;9352;50.888;4.466;2023-06-14T09:18:14;26.70;69.00
18446;DHT22;9352;50.888;4.466;2023-06-14T09:20:41;26.70;68.90
18446;DHT22;9352;50.888;4.466;2023-06-14T09:23:08;26.80;68.10
18446;DHT22;9352;50.888;4.466;2023-06-14T09:25:42;26.90;68.90
18446;DHT22;9352;50.888;4.466;2023-06-14T09:28:11;26.90;68.10
18446;DHT22;9352;50.888;4.466;2023-06-14T09:30:38;27.00;68.20
18446;DHT22;9352;50.888;4.466;2023-06-14T09:33:05;27.20;66.00
18446;DHT22;9352;50.888;4.466;2023-06-14T09:35:32;27.20;67.30
18446;DHT22;9352;50.888;4.466;2023-06-14T09:37:59;27.30;67.80
18446;DHT22;9352;50.888;4.466;2023-06-14T09:40:26;27.30;68.10
18446;DHT22;9352;50.888;4.466;2023-06-14T09:42:53;27.40;68.30
18446;DHT22;9352;50.888;4.466;2023-06-14T09:45:25;27.40;68.20
18446;DHT22;9352;50.888;4.466;2023-06-14T09:47:55;27.50;68.30
18446;DHT22;9352;50.888;4.466;2023-06-14T09:50:22;27.70;65.50
18446;DHT22;9352;50.888;4.466;2023-06-14T09:52:52;27.70;63.90
18446;DHT22;9352;50.888;4.466;2023-06-14T09:55:21;27.60;63.80
18446;DHT22;9352;50.888;4.466;2023-06-14T09:57:50;27.50;63.70
18446;DHT22;9352;50.888;4.466;2023-06-14T10:00:18;27.50;64.30
18446;DHT22;9352;50.888;4.466;2023-06-14T10:02:51;27.60;63.10
18446;DHT22;9352;50.888;4.466;2023-06-14T10:05:20;27.60;63.00
18446;DHT22;9352;50.888;4.466;2023-06-14T10:07:53;27.80;62.20
18446;DHT22;9352;50.888;4.466;2023-06-14T10:10:20;27.80;62.20
18446;DHT22;9352;50.888;4.466;2023-06-14T10:12:47;28.00;62.20
18446;DHT22;9352;50.888;4.466;2023-06-14T10:15:19;28.50;60.80
18446;DHT22;9352;50.888;4.466;2023-06-14T10:17:52;29.00;60.80
18446;DHT22;9352;50.888;4.466;2023-06-14T10:20:27;29.50;60.00
18446;DHT22;9352;50.888;4.466;2023-06-14T10:23:00;30.10;58.20
18446;DHT22;9352;50.888;4.466;2023-06-14T10:25:29;30.50;56.60
18446;DHT22;9352;50.888;4.466;2023-06-14T10:28:08;30.90;55.90
18446;DHT22;9352;50.888;4.466;2023-06-14T10:31:01;31.40;55.70
18446;DHT22;9352;50.888;4.466;2023-06-14T10:33:30;31.80;55.10
18446;DHT22;9352;50.888;4.466;2023-06-14T10:36:24;32.00;54.10
18446;DHT22;9352;50.888;4.466;2023-06-14T10:39:01;32.40;54.10
18446;DHT22;9352;50.888;4.466;2023-06-14T10:41:32;32.90;53.10
18446;DHT22;9352;50.888;4.466;2023-06-14T10:44:38;33.10;53.60
18446;DHT22;9352;50.888;4.466;2023-06-14T10:47:26;33.30;52.00
18446;DHT22;9352;50.888;4.466;2023-06-14T10:49:55;33.70;51.70
18446;DHT22;9352;50.888;4.466;2023-06-14T10:52:27;34.00;51.30
18446;DHT22;9352;50.888;4.466;2023-06-14T10:55:15;34.40;50.00
18446;DHT22;9352;50.888;4.466;2023-06-14T10:57:45;34.50;49.60
18446;DHT22;9352;50.888;4.466;2023-06-14T11:00:14;34.60;49.30
18446;DHT22;9352;50.888;4.466;2023-06-14T11:05:56;35.00;49.30
18446;DHT22;9352;50.888;4.466;2023-06-14T11:11:09;35.00;47.40
18446;DHT22;9352;50.888;4.466;2023-06-14T11:13:38;35.40;47.90
18446;DHT22;9352;50.888;4.466;2023-06-14T11:16:10;35.10;48.70
18446;DHT22;9352;50.888;4.466;2023-06-14T11:18:38;35.20;48.70
18446;DHT22;9352;50.888;4.466;2023-06-14T11:21:06;35.50;48.50
18446;DHT22;9352;50.888;4.466;2023-06-14T11:23:34;35.50;48.30
18446;DHT22;9352;50.888;4.466;2023-06-14T11:26:01;35.90;47.70
18446;DHT22;9352;50.888;4.466;2023-06-14T11:28:37;35.70;47.00
18446;DHT22;9352;50.888;4.466;2023-06-14T11:31:04;35.70;46.90
18446;DHT22;9352;50.888;4.466;2023-06-14T11:33:31;35.90;46.80
18446;DHT22;9352;50.888;4.466;2023-06-14T11:35:58;35.60;48.00
18446;DHT22;9352;50.888;4.466;2023-06-14T11:38:29;36.40;46.40
18446;DHT22;9352;50.888;4.466;2023-06-14T11:40:59;36.50;46.00
18446;DHT22;9352;50.888;4.466;2023-06-14T11:43:26;36.50;45.60
18446;DHT22;9352;50.888;4.466;2023-06-14T11:45:54;36.70;44.60
18446;DHT22;9352;50.888;4.466;2023-06-14T11:48:21;36.60;45.40
18446;DHT22;9352;50.888;4.466;2023-06-14T11:50:50;36.50;45.70
18446;DHT22;9352;50.888;4.466;2023-06-14T11:53:18;36.60;45.20
18446;DHT22;9352;50.888;4.466;2023-06-14T11:55:46;37.30;44.90
18446;DHT22;9352;50.888;4.466;2023-06-14T11:58:13;37.70;43.40
18446;DHT22;9352;50.888;4.466;2023-06-14T12:00:41;37.40;43.40
18446;DHT22;9352;50.888;4.466;2023-06-14T12:03:08;37.40;43.90
18446;DHT22;9352;50.888;4.466;2023-06-14T12:05:36;37.90;42.90
18446;DHT22;9352;50.888;4.466;2023-06-14T12:08:04;38.20;42.90
18446;DHT22;9352;50.888;4.466;2023-06-14T12:10:39;38.20;42.30
18446;DHT22;9352;50.888;4.466;2023-06-14T12:13:10;38.00;42.70
18446;DHT22;9352;50.888;4.466;2023-06-14T12:15:37;38.00;42.20
18446;DHT22;9352;50.888;4.466;2023-06-14T12:18:05;38.00;42.40
18446;DHT22;9352;50.888;4.466;2023-06-14T12:20:33;38.10;42.30
18446;DHT22;9352;50.888;4.466;2023-06-14T12:23:03;38.00;41.90
18446;DHT22;9352;50.888;4.466;2023-06-14T12:25:31;38.20;41.80
18446;DHT22;9352;50.888;4.466;2023-06-14T12:27:59;38.50;41.80
18446;DHT22;9352;50.888;4.466;2023-06-14T12:30:31;38.00;41.50
18446;DHT22;9352;50.888;4.466;2023-06-14T12:32:58;38.10;43.10
18446;DHT22;9352;50.888;4.466;2023-06-14T12:35:26;38.60;41.90
18446;DHT22;9352;50.888;4.466;2023-06-14T12:37:52;38.60;41.80
18446;DHT22;9352;50.888;4.466;2023-06-14T12:40:19;38.50;42.20
18446;DHT22;9352;50.888;4.466;2023-06-14T12:42:46;38.30;41.70
18446;DHT22;9352;50.888;4.466;2023-06-14T12:45:13;38.00;42.00
18446;DHT22;9352;50.888;4.466;2023-06-14T12:47:42;38.50;41.70
18446;DHT22;9352;50.888;4.466;2023-06-14T12:50:09;38.80;41.20
18446;DHT22;9352;50.888;4.466;2023-06-14T12:52:36;39.10;40.70
18446;DHT22;9352;50.888;4.466;2023-06-14T12:55:04;39.10;41.10
18446;DHT22;9352;50.888;4.466;2023-06-14T12:57:31;39.00;41.30
18446;DHT22;9352;50.888;4.466;2023-06-14T12:59:59;38.90;41.70
18446;DHT22;9352;50.888;4.466;2023-06-14T13:02:26;38.90;41.40
18446;DHT22;9352;50.888;4.466;2023-06-14T13:04:55;39.40;41.30
18446;DHT22;9352;50.888;4.466;2023-06-14T13:07:24;40.00;40.70
18446;DHT22;9352;50.888;4.466;2023-06-14T13:09:50;40.40;40.60
18446;DHT22;9352;50.888;4.466;2023-06-14T13:12:17;40.30;39.60
18446;DHT22;9352;50.888;4.466;2023-06-14T13:14:44;40.50;39.70
18446;DHT22;9352;50.888;4.466;2023-06-14T13:17:11;40.70;39.10
18446;DHT22;9352;50.888;4.466;2023-06-14T13:19:38;41.00;38.70
18446;DHT22;9352;50.888;4.466;2023-06-14T13:22:06;41.10;38.80
18446;DHT22;9352;50.888;4.466;2023-06-14T13:24:34;41.30;38.30
18446;DHT22;9352;50.888;4.466;2023-06-14T13:27:01;40.90;38.40
18446;DHT22;9352;50.888;4.466;2023-06-14T13:29:28;40.00;40.10
18446;DHT22;9352;50.888;4.466;2023-06-14T13:31:56;40.40;38.70
18446;DHT22;9352;50.888;4.466;2023-06-14T13:34:23;39.30;38.50
18446;DHT22;9352;50.888;4.466;2023-06-14T13:36:50;39.10;40.30
18446;DHT22;9352;50.888;4.466;2023-06-14T13:39:18;40.20;39.10
18446;DHT22;9352;50.888;4.466;2023-06-14T13:41:45;41.00;38.30
18446;DHT22;9352;50.888;4.466;2023-06-14T13:44:12;41.70;37.60
18446;DHT22;9352;50.888;4.466;2023-06-14T13:46:40;42.60;37.20
18446;DHT22;9352;50.888;4.466;2023-06-14T13:49:08;42.60;36.40
18446;DHT22;9352;50.888;4.466;2023-06-14T13:51:36;42.60;36.10
18446;DHT22;9352;50.888;4.466;2023-06-14T13:54:03;42.80;35.80
18446;DHT22;9352;50.888;4.466;2023-06-14T13:56:31;41.80;37.10
18446;DHT22;9352;50.888;4.466;2023-06-14T13:58:58;42.50;35.80
18446;DHT22;9352;50.888;4.466;2023-06-14T14:01:25;42.50;35.80
18446;DHT22;9352;50.888;4.466;2023-06-14T14:03:54;41.70;36.00
18446;DHT22;9352;50.888;4.466;2023-06-14T14:06:21;42.80;35.40
18446;DHT22;9352;50.888;4.466;2023-06-14T14:08:48;42.80;34.80
18446;DHT22;9352;50.888;4.466;2023-06-14T14:11:15;43.10;34.70
18446;DHT22;9352;50.888;4.466;2023-06-14T14:13:43;43.50;35.00
18446;DHT22;9352;50.888;4.466;2023-06-14T14:16:10;43.60;34.80
18446;DHT22;9352;50.888;4.466;2023-06-14T14:18:37;41.90;35.60
18446;DHT22;9352;50.888;4.466;2023-06-14T14:21:04;43.10;35.10
18446;DHT22;9352;50.888;4.466;2023-06-14T14:23:31;43.40;34.90
18446;DHT22;9352;50.888;4.466;2023-06-14T14:25:58;43.40;34.70
18446;DHT22;9352;50.888;4.466;2023-06-14T14:28:26;44.10;34.30
18446;DHT22;9352;50.888;4.466;2023-06-14T14:30:54;43.70;34.20
18446;DHT22;9352;50.888;4.466;2023-06-14T14:33:21;44.20;34.00
18446;DHT22;9352;50.888;4.466;2023-06-14T14:35:48;44.80;33.80
18446;DHT22;9352;50.888;4.466;2023-06-14T14:38:15;43.70;33.80
18446;DHT22;9352;50.888;4.466;2023-06-14T14:40:42;43.90;34.00
18446;DHT22;9352;50.888;4.466;2023-06-14T14:43:09;44.40;33.60
18446;DHT22;9352;50.888;4.466;2023-06-14T14:45:36;44.60;33.10
18446;DHT22;9352;50.888;4.466;2023-06-14T14:48:05;44.60;33.10
18446;DHT22;9352;50.888;4.466;2023-06-14T14:50:32;45.30;32.80
18446;DHT22;9352;50.888;4.466;2023-06-14T14:53:00;45.60;32.80
18446;DHT22;9352;50.888;4.466;2023-06-14T14:55:27;45.20;32.80
18446;DHT22;9352;50.888;4.466;2023-06-14T14:57:54;46.00;32.50
18446;DHT22;9352;50.888;4.466;2023-06-14T15:00:21;45.50;32.90
18446;DHT22;9352;50.888;4.466;2023-06-14T15:02:48;45.60;32.60
18446;DHT22;9352;50.888;4.466;2023-06-14T15:05:16;46.00;32.50
18446;DHT22;9352;50.888;4.466;2023-06-14T15:07:43;45.80;32.80
18446;DHT22;9352;50.888;4.466;2023-06-14T15:10:11;46.30;32.50
18446;DHT22;9352;50.888;4.466;2023-06-14T15:12:38;46.70;32.20
18446;DHT22;9352;50.888;4.466;2023-06-14T15:15:05;47.10;32.20
18446;DHT22;9352;50.888;4.466;2023-06-14T15:17:33;46.80;32.00
18446;DHT22;9352;50.888;4.466;2023-06-14T15:19:59;45.40;33.20
18446;DHT22;9352;50.888;4.466;2023-06-14T15:22:28;44.50;33.60
18446;DHT22;9352;50.888;4.466;2023-06-14T15:24:55;45.30;32.80
18446;DHT22;9352;50.888;4.466;2023-06-14T15:27:21;45.80;32.60
18446;DHT22;9352;50.888;4.466;2023-06-14T15:29:48;46.10;32.30
18446;DHT22;9352;50.888;4.466;2023-06-14T15:32:15;46.40;32.00
18446;DHT22;9352;50.888;4.466;2023-06-14T15:34:42;46.70;32.20
18446;DHT22;9352;50.888;4.466;2023-06-14T15:37:09;46.50;32.10
18446;DHT22;9352;50.888;4.466;2023-06-14T15:39:37;46.40;32.00
18446;DHT22;9352;50.888;4.466;2023-06-14T15:42:05;46.30;32.00
18446;DHT22;9352;50.888;4.466;2023-06-14T15:44:33;46.20;32.00
18446;DHT22;9352;50.888;4.466;2023-06-14T15:47:02;45.80;32.20
18446;DHT22;9352;50.888;4.466;2023-06-14T15:49:29;45.30;32.60
18446;DHT22;9352;50.888;4.466;2023-06-14T15:51:55;45.40;32.40
18446;DHT22;9352;50.888;4.466;2023-06-14T15:54:23;45.40;32.10
18446;DHT22;9352;50.888;4.466;2023-06-14T15:56:52;45.40;32.30